Ashford, West Virginia
Current Conditions -  °F | °C
As of 3:54 PM on Thursday 18 Dec 2014 (Local Time) from KCRW Reporting Station
Overcast Overcast  
Wind Chill: 27°   Ceiling: 10000
Heat Index: 32°   Visibility: 10mi
Dew Point: 22°   Wind: 5mph
Humidity: 66%   Direction: 310°NW
Pressure: 30.2"   Gusts: NA
Location:  38.18°N, 81.71°W
Report Text: KCRW 182054Z 31004KT 10SM SCT025 OVC100 00/M06 A3020 RMK AO2 SLP234 T00001056 55001
Loading
Personal Weather Stations






























Interactive Weather Map New forecast layout! Learn more

10-Day Weather Forecast

Advertisements
Track Severe Weather on mobile